sensor_id;sensor_type;location;lat;lon;timestamp;temperature;humidity
59973;DHT22;55298;-36.624;-64.282;2022-07-23T00:01:16;11.20;76.40
59973;DHT22;55298;-36.624;-64.282;2022-07-23T00:03:44;11.30;76.70
59973;DHT22;55298;-36.624;-64.282;2022-07-23T00:06:14;11.20;77.30
59973;DHT22;55298;-36.624;-64.282;2022-07-23T00:08:42;11.40;76.80
59973;DHT22;55298;-36.624;-64.282;2022-07-23T00:11:10;11.40;77.60
59973;DHT22;55298;-36.624;-64.282;2022-07-23T00:13:38;11.40;77.70
59973;DHT22;55298;-36.624;-64.282;2022-07-23T00:16:07;11.40;78.20
59973;DHT22;55298;-36.624;-64.282;2022-07-23T00:18:35;11.40;78.70
59973;DHT22;55298;-36.624;-64.282;2022-07-23T00:21:05;11.40;79.20
59973;DHT22;55298;-36.624;-64.282;2022-07-23T00:23:33;11.40;79.90
59973;DHT22;55298;-36.624;-64.282;2022-07-23T00:26:02;11.40;80.50
59973;DHT22;55298;-36.624;-64.282;2022-07-23T00:28:30;11.30;80.80
59973;DHT22;55298;-36.624;-64.282;2022-07-23T00:30:59;11.30;81.40
59973;DHT22;55298;-36.624;-64.282;2022-07-23T00:33:27;11.20;81.90
59973;DHT22;55298;-36.624;-64.282;2022-07-23T00:35:56;11.30;82.30
59973;DHT22;55298;-36.624;-64.282;2022-07-23T00:38:24;11.10;82.70
59973;DHT22;55298;-36.624;-64.282;2022-07-23T00:40:54;11.10;83.40
59973;DHT22;55298;-36.624;-64.282;2022-07-23T00:43:22;11.10;84.00
59973;DHT22;55298;-36.624;-64.282;2022-07-23T00:45:50;11.00;84.70
59973;DHT22;55298;-36.624;-64.282;2022-07-23T00:48:20;11.00;85.10
59973;DHT22;55298;-36.624;-64.282;2022-07-23T00:50:49;11.00;85.80
59973;DHT22;55298;-36.624;-64.282;2022-07-23T00:53:18;10.90;86.10
59973;DHT22;55298;-36.624;-64.282;2022-07-23T00:55:48;10.80;86.70
59973;DHT22;55298;-36.624;-64.282;2022-07-23T00:58:18;10.80;87.00
59973;DHT22;55298;-36.624;-64.282;2022-07-23T01:00:46;10.70;87.90
59973;DHT22;55298;-36.624;-64.282;2022-07-23T01:03:14;10.60;88.30
59973;DHT22;55298;-36.624;-64.282;2022-07-23T01:05:42;10.60;89.00
59973;DHT22;55298;-36.624;-64.282;2022-07-23T01:08:12;10.60;89.70
59973;DHT22;55298;-36.624;-64.282;2022-07-23T01:10:40;10.60;90.20
59973;DHT22;55298;-36.624;-64.282;2022-07-23T01:13:10;10.60;90.40
59973;DHT22;55298;-36.624;-64.282;2022-07-23T01:15:39;11.30;90.80
59973;DHT22;55298;-36.624;-64.282;2022-07-23T01:18:08;10.50;90.80
59973;DHT22;55298;-36.624;-64.282;2022-07-23T01:20:39;10.50;91.00
59973;DHT22;55298;-36.624;-64.282;2022-07-23T01:23:09;10.60;91.20
59973;DHT22;55298;-36.624;-64.282;2022-07-23T01:25:37;10.50;91.50
59973;DHT22;55298;-36.624;-64.282;2022-07-23T01:28:05;10.40;91.50
59973;DHT22;55298;-36.624;-64.282;2022-07-23T01:30:33;10.50;91.80
59973;DHT22;55298;-36.624;-64.282;2022-07-23T01:33:02;10.50;91.90
59973;DHT22;55298;-36.624;-64.282;2022-07-23T01:35:30;10.60;92.00
59973;DHT22;55298;-36.624;-64.282;2022-07-23T01:38:03;10.60;91.90
59973;DHT22;55298;-36.624;-64.282;2022-07-23T01:40:31;10.60;92.20
59973;DHT22;55298;-36.624;-64.282;2022-07-23T01:43:02;10.60;92.30
59973;DHT22;55298;-36.624;-64.282;2022-07-23T01:45:30;10.60;92.00
59973;DHT22;55298;-36.624;-64.282;2022-07-23T01:47:59;10.80;92.00
59973;DHT22;55298;-36.624;-64.282;2022-07-23T01:50:28;10.90;91.80
59973;DHT22;55298;-36.624;-64.282;2022-07-23T01:52:56;10.90;92.10
59973;DHT22;55298;-36.624;-64.282;2022-07-23T01:55:26;11.00;91.60
59973;DHT22;55298;-36.624;-64.282;2022-07-23T01:57:54;11.00;91.90
59973;DHT22;55298;-36.624;-64.282;2022-07-23T02:00:23;11.00;91.90
59973;DHT22;55298;-36.624;-64.282;2022-07-23T02:02:51;11.00;91.80
59973;DHT22;55298;-36.624;-64.282;2022-07-23T02:05:20;11.00;91.90
59973;DHT22;55298;-36.624;-64.282;2022-07-23T02:07:48;11.00;91.90
59973;DHT22;55298;-36.624;-64.282;2022-07-23T02:10:17;10.90;92.00
59973;DHT22;55298;-36.624;-64.282;2022-07-23T02:12:46;10.90;92.20
59973;DHT22;55298;-36.624;-64.282;2022-07-23T02:15:15;10.80;92.20
59973;DHT22;55298;-36.624;-64.282;2022-07-23T02:17:44;10.80;92.10
59973;DHT22;55298;-36.624;-64.282;2022-07-23T02:20:13;10.80;92.40
59973;DHT22;55298;-36.624;-64.282;2022-07-23T02:22:42;10.70;92.30
59973;DHT22;55298;-36.624;-64.282;2022-07-23T02:25:10;10.70;92.60
59973;DHT22;55298;-36.624;-64.282;2022-07-23T02:27:40;10.70;92.70
59973;DHT22;55298;-36.624;-64.282;2022-07-23T02:30:08;10.70;92.40
59973;DHT22;55298;-36.624;-64.282;2022-07-23T02:32:38;10.60;92.60
59973;DHT22;55298;-36.624;-64.282;2022-07-23T02:35:06;10.60;92.80
59973;DHT22;55298;-36.624;-64.282;2022-07-23T02:37:36;10.60;92.90
59973;DHT22;55298;-36.624;-64.282;2022-07-23T02:40:04;10.50;92.90
59973;DHT22;55298;-36.624;-64.282;2022-07-23T02:42:33;10.50;93.00
59973;DHT22;55298;-36.624;-64.282;2022-07-23T02:45:02;10.50;93.20
59973;DHT22;55298;-36.624;-64.282;2022-07-23T02:47:31;10.40;93.10
59973;DHT22;55298;-36.624;-64.282;2022-07-23T02:49:59;10.40;93.40
59973;DHT22;55298;-36.624;-64.282;2022-07-23T02:52:28;10.40;93.50
59973;DHT22;55298;-36.624;-64.282;2022-07-23T02:54:57;10.30;93.60
59973;DHT22;55298;-36.624;-64.282;2022-07-23T02:57:26;10.30;93.40
59973;DHT22;55298;-36.624;-64.282;2022-07-23T02:59:54;10.30;93.40
59973;DHT22;55298;-36.624;-64.282;2022-07-23T03:02:23;10.30;93.70
59973;DHT22;55298;-36.624;-64.282;2022-07-23T03:04:53;10.20;93.80
59973;DHT22;55298;-36.624;-64.282;2022-07-23T03:07:22;10.10;93.80
59973;DHT22;55298;-36.624;-64.282;2022-07-23T03:09:51;10.10;93.90
59973;DHT22;55298;-36.624;-64.282;2022-07-23T03:12:19;10.10;93.90
59973;DHT22;55298;-36.624;-64.282;2022-07-23T03:14:48;10.10;94.10
59973;DHT22;55298;-36.624;-64.282;2022-07-23T03:17:17;10.10;94.20
59973;DHT22;55298;-36.624;-64.282;2022-07-23T03:19:47;10.00;94.30
59973;DHT22;55298;-36.624;-64.282;2022-07-23T03:22:17;10.00;94.20
59973;DHT22;55298;-36.624;-64.282;2022-07-23T03:24:45;9.90;94.40
59973;DHT22;55298;-36.624;-64.282;2022-07-23T03:27:22;9.90;94.60
59973;DHT22;55298;-36.624;-64.282;2022-07-23T03:29:53;9.80;94.70
59973;DHT22;55298;-36.624;-64.282;2022-07-23T03:32:23;9.70;94.90
59973;DHT22;55298;-36.624;-64.282;2022-07-23T03:34:51;9.60;95.00
59973;DHT22;55298;-36.624;-64.282;2022-07-23T03:37:20;9.60;95.20
59973;DHT22;55298;-36.624;-64.282;2022-07-23T03:39:49;9.60;95.30
59973;DHT22;55298;-36.624;-64.282;2022-07-23T03:42:17;9.60;95.20
59973;DHT22;55298;-36.624;-64.282;2022-07-23T03:44:46;9.60;95.40
59973;DHT22;55298;-36.624;-64.282;2022-07-23T03:47:15;9.60;95.40
59973;DHT22;55298;-36.624;-64.282;2022-07-23T03:49:43;9.60;95.40
59973;DHT22;55298;-36.624;-64.282;2022-07-23T03:52:13;9.50;95.40
59973;DHT22;55298;-36.624;-64.282;2022-07-23T03:54:41;9.50;95.30
59973;DHT22;55298;-36.624;-64.282;2022-07-23T03:57:10;9.50;95.60
59973;DHT22;55298;-36.624;-64.282;2022-07-23T03:59:38;9.50;95.30
59973;DHT22;55298;-36.624;-64.282;2022-07-23T04:02:06;9.50;95.50
59973;DHT22;55298;-36.624;-64.282;2022-07-23T04:04:34;9.40;95.30
59973;DHT22;55298;-36.624;-64.282;2022-07-23T04:07:03;9.40;95.60
59973;DHT22;55298;-36.624;-64.282;2022-07-23T04:09:31;9.40;95.50
59973;DHT22;55298;-36.624;-64.282;2022-07-23T04:12:02;9.40;95.70
59973;DHT22;55298;-36.624;-64.282;2022-07-23T04:14:30;9.40;95.50
59973;DHT22;55298;-36.624;-64.282;2022-07-23T04:17:00;9.40;95.40
59973;DHT22;55298;-36.624;-64.282;2022-07-23T04:19:28;9.50;95.70
59973;DHT22;55298;-36.624;-64.282;2022-07-23T04:21:57;9.50;95.40
59973;DHT22;55298;-36.624;-64.282;2022-07-23T04:24:26;9.50;95.60
59973;DHT22;55298;-36.624;-64.282;2022-07-23T04:26:55;9.40;95.70
59973;DHT22;55298;-36.624;-64.282;2022-07-23T04:29:24;9.40;95.70
59973;DHT22;55298;-36.624;-64.282;2022-07-23T04:31:53;9.40;95.50
59973;DHT22;55298;-36.624;-64.282;2022-07-23T04:34:21;9.40;95.70
59973;DHT22;55298;-36.624;-64.282;2022-07-23T04:36:50;9.40;95.80
59973;DHT22;55298;-36.624;-64.282;2022-07-23T04:39:19;9.40;95.90
59973;DHT22;55298;-36.624;-64.282;2022-07-23T04:41:47;9.30;95.90
59973;DHT22;55298;-36.624;-64.282;2022-07-23T04:44:16;9.30;96.00
59973;DHT22;55298;-36.624;-64.282;2022-07-23T04:46:46;9.20;96.10
59973;DHT22;55298;-36.624;-64.282;2022-07-23T04:49:14;9.20;96.10
59973;DHT22;55298;-36.624;-64.282;2022-07-23T04:51:43;9.20;96.20
59973;DHT22;55298;-36.624;-64.282;2022-07-23T04:54:11;9.10;96.10
59973;DHT22;55298;-36.624;-64.282;2022-07-23T04:56:40;9.10;96.40
59973;DHT22;55298;-36.624;-64.282;2022-07-23T04:59:08;9.00;96.50
59973;DHT22;55298;-36.624;-64.282;2022-07-23T05:01:37;8.90;96.70
59973;DHT22;55298;-36.624;-64.282;2022-07-23T05:04:06;8.90;96.80
59973;DHT22;55298;-36.624;-64.282;2022-07-23T05:06:34;8.90;96.90
59973;DHT22;55298;-36.624;-64.282;2022-07-23T05:09:02;8.90;96.60
59973;DHT22;55298;-36.624;-64.282;2022-07-23T05:11:31;8.90;96.50
59973;DHT22;55298;-36.624;-64.282;2022-07-23T05:13:59;9.00;96.40
59973;DHT22;55298;-36.624;-64.282;2022-07-23T05:16:28;9.00;96.20
59973;DHT22;55298;-36.624;-64.282;2022-07-23T05:18:57;9.00;96.50
59973;DHT22;55298;-36.624;-64.282;2022-07-23T05:21:25;9.00;96.50
59973;DHT22;55298;-36.624;-64.282;2022-07-23T05:23:54;9.00;96.50
59973;DHT22;55298;-36.624;-64.282;2022-07-23T05:26:23;9.00;96.50
59973;DHT22;55298;-36.624;-64.282;2022-07-23T05:28:51;8.90;96.40
59973;DHT22;55298;-36.624;-64.282;2022-07-23T05:31:20;8.90;96.40
59973;DHT22;55298;-36.624;-64.282;2022-07-23T05:33:48;8.80;96.70
59973;DHT22;55298;-36.624;-64.282;2022-07-23T05:36:17;8.80;96.90
59973;DHT22;55298;-36.624;-64.282;2022-07-23T05:38:45;8.90;96.90
59973;DHT22;55298;-36.624;-64.282;2022-07-23T05:41:13;8.80;96.80
59973;DHT22;55298;-36.624;-64.282;2022-07-23T05:43:42;8.80;96.60
59973;DHT22;55298;-36.624;-64.282;2022-07-23T05:46:11;8.80;96.80
59973;DHT22;55298;-36.624;-64.282;2022-07-23T05:48:40;8.90;96.80
59973;DHT22;55298;-36.624;-64.282;2022-07-23T05:51:12;8.70;96.70
59973;DHT22;55298;-36.624;-64.282;2022-07-23T05:53:40;8.70;97.10
59973;DHT22;55298;-36.624;-64.282;2022-07-23T05:56:09;8.60;97.10
59973;DHT22;55298;-36.624;-64.282;2022-07-23T05:58:37;8.50;97.40
59973;DHT22;55298;-36.624;-64.282;2022-07-23T06:01:06;8.40;97.70
59973;DHT22;55298;-36.624;-64.282;2022-07-23T06:03:35;8.50;97.80
59973;DHT22;55298;-36.624;-64.282;2022-07-23T06:06:05;8.40;97.80
59973;DHT22;55298;-36.624;-64.282;2022-07-23T06:08:33;8.40;98.00
59973;DHT22;55298;-36.624;-64.282;2022-07-23T06:11:02;8.30;98.10
59973;DHT22;55298;-36.624;-64.282;2022-07-23T06:13:30;8.50;98.00
59973;DHT22;55298;-36.624;-64.282;2022-07-23T06:15:58;8.50;97.80
59973;DHT22;55298;-36.624;-64.282;2022-07-23T06:18:29;8.50;97.70
59973;DHT22;55298;-36.624;-64.282;2022-07-23T06:20:57;8.50;97.50
59973;DHT22;55298;-36.624;-64.282;2022-07-23T06:23:27;8.50;97.80
59973;DHT22;55298;-36.624;-64.282;2022-07-23T06:25:56;8.50;97.70
59973;DHT22;55298;-36.624;-64.282;2022-07-23T06:28:25;8.50;97.60
59973;DHT22;55298;-36.624;-64.282;2022-07-23T06:30:54;8.50;97.40
59973;DHT22;55298;-36.624;-64.282;2022-07-23T06:33:23;8.50;97.70
59973;DHT22;55298;-36.624;-64.282;2022-07-23T06:35:52;8.50;97.50
59973;DHT22;55298;-36.624;-64.282;2022-07-23T06:38:20;8.50;97.60
59973;DHT22;55298;-36.624;-64.282;2022-07-23T06:40:49;8.40;97.70
59973;DHT22;55298;-36.624;-64.282;2022-07-23T06:43:17;8.40;97.80
59973;DHT22;55298;-36.624;-64.282;2022-07-23T06:45:45;8.30;98.00
59973;DHT22;55298;-36.624;-64.282;2022-07-23T06:48:14;8.30;98.10
59973;DHT22;55298;-36.624;-64.282;2022-07-23T06:50:44;8.30;98.30
59973;DHT22;55298;-36.624;-64.282;2022-07-23T06:53:12;8.20;98.20
59973;DHT22;55298;-36.624;-64.282;2022-07-23T06:55:40;8.20;98.50
59973;DHT22;55298;-36.624;-64.282;2022-07-23T06:58:09;8.30;98.30
59973;DHT22;55298;-36.624;-64.282;2022-07-23T07:00:37;8.40;98.30
59973;DHT22;55298;-36.624;-64.282;2022-07-23T07:03:05;8.20;98.10
59973;DHT22;55298;-36.624;-64.282;2022-07-23T07:05:33;8.20;98.30
59973;DHT22;55298;-36.624;-64.282;2022-07-23T07:08:06;8.20;98.40
59973;DHT22;55298;-36.624;-64.282;2022-07-23T07:10:37;8.20;98.40
59973;DHT22;55298;-36.624;-64.282;2022-07-23T07:13:05;8.10;98.60
59973;DHT22;55298;-36.624;-64.282;2022-07-23T07:15:34;8.20;98.70
59973;DHT22;55298;-36.624;-64.282;2022-07-23T07:18:03;8.20;98.60
59973;DHT22;55298;-36.624;-64.282;2022-07-23T07:20:32;8.10;98.60
59973;DHT22;55298;-36.624;-64.282;2022-07-23T07:23:00;8.10;98.70
59973;DHT22;55298;-36.624;-64.282;2022-07-23T07:25:28;8.10;98.90
59973;DHT22;55298;-36.624;-64.282;2022-07-23T07:27:58;8.00;99.00
59973;DHT22;55298;-36.624;-64.282;2022-07-23T07:30:26;8.00;99.20
59973;DHT22;55298;-36.624;-64.282;2022-07-23T07:32:54;7.90;99.00
59973;DHT22;55298;-36.624;-64.282;2022-07-23T07:35:22;7.80;99.30
59973;DHT22;55298;-36.624;-64.282;2022-07-23T07:37:51;7.90;99.50
59973;DHT22;55298;-36.624;-64.282;2022-07-23T07:40:19;7.70;99.40
59973;DHT22;55298;-36.624;-64.282;2022-07-23T07:42:50;7.70;99.70
59973;DHT22;55298;-36.624;-64.282;2022-07-23T07:45:21;7.70;99.90
59973;DHT22;55298;-36.624;-64.282;2022-07-23T07:47:50;7.60;99.90
59973;DHT22;55298;-36.624;-64.282;2022-07-23T07:50:23;7.60;99.90
59973;DHT22;55298;-36.624;-64.282;2022-07-23T07:52:52;7.70;99.50
59973;DHT22;55298;-36.624;-64.282;2022-07-23T07:55:20;7.70;99.50
59973;DHT22;55298;-36.624;-64.282;2022-07-23T07:57:50;7.70;99.70
59973;DHT22;55298;-36.624;-64.282;2022-07-23T08:00:19;7.70;99.70
59973;DHT22;55298;-36.624;-64.282;2022-07-23T08:02:50;7.70;99.70
59973;DHT22;55298;-36.624;-64.282;2022-07-23T08:05:24;7.70;99.70
59973;DHT22;55298;-36.624;-64.282;2022-07-23T08:07:53;7.60;99.30
59973;DHT22;55298;-36.624;-64.282;2022-07-23T08:10:23;7.70;99.60
59973;DHT22;55298;-36.624;-64.282;2022-07-23T08:12:55;7.70;99.30
59973;DHT22;55298;-36.624;-64.282;2022-07-23T08:15:24;7.80;99.60
59973;DHT22;55298;-36.624;-64.282;2022-07-23T08:17:53;7.70;99.30
59973;DHT22;55298;-36.624;-64.282;2022-07-23T08:20:23;7.70;99.60
59973;DHT22;55298;-36.624;-64.282;2022-07-23T08:22:57;7.70;99.40
59973;DHT22;55298;-36.624;-64.282;2022-07-23T08:25:32;7.80;99.20
59973;DHT22;55298;-36.624;-64.282;2022-07-23T08:28:05;7.90;98.90
59973;DHT22;55298;-36.624;-64.282;2022-07-23T08:30:36;8.00;98.80
59973;DHT22;55298;-36.624;-64.282;2022-07-23T08:33:08;8.00;98.40
59973;DHT22;55298;-36.624;-64.282;2022-07-23T08:35:47;8.00;98.70
59973;DHT22;55298;-36.624;-64.282;2022-07-23T08:38:18;8.00;98.70
59973;DHT22;55298;-36.624;-64.282;2022-07-23T08:40:51;8.10;98.70
59973;DHT22;55298;-36.624;-64.282;2022-07-23T08:43:22;8.10;98.40
59973;DHT22;55298;-36.624;-64.282;2022-07-23T08:45:55;8.10;98.30
59973;DHT22;55298;-36.624;-64.282;2022-07-23T08:48:26;8.20;98.20
59973;DHT22;55298;-36.624;-64.282;2022-07-23T08:50:57;8.20;98.00
59973;DHT22;55298;-36.624;-64.282;2022-07-23T08:53:27;8.20;97.80
59973;DHT22;55298;-36.624;-64.282;2022-07-23T08:56:00;8.20;98.10
59973;DHT22;55298;-36.624;-64.282;2022-07-23T08:58:32;8.30;98.10
59973;DHT22;55298;-36.624;-64.282;2022-07-23T09:01:01;8.30;97.80
59973;DHT22;55298;-36.624;-64.282;2022-07-23T09:03:31;8.20;98.00
59973;DHT22;55298;-36.624;-64.282;2022-07-23T09:06:01;8.30;97.90
59973;DHT22;55298;-36.624;-64.282;2022-07-23T09:08:40;8.40;97.60
59973;DHT22;55298;-36.624;-64.282;2022-07-23T09:11:15;8.30;97.80
59973;DHT22;55298;-36.624;-64.282;2022-07-23T09:13:53;8.30;97.80
59973;DHT22;55298;-36.624;-64.282;2022-07-23T09:16:31;7.90;97.70
59973;DHT22;55298;-36.624;-64.282;2022-07-23T09:19:04;8.20;98.10
59973;DHT22;55298;-36.624;-64.282;2022-07-23T09:21:35;8.30;98.00
59973;DHT22;55298;-36.624;-64.282;2022-07-23T09:24:11;8.40;97.60
59973;DHT22;55298;-36.624;-64.282;2022-07-23T09:26:46;8.40;97.90
59973;DHT22;55298;-36.624;-64.282;2022-07-23T09:29:20;8.50;97.90
59973;DHT22;55298;-36.624;-64.282;2022-07-23T09:31:55;8.60;98.00
59973;DHT22;55298;-36.624;-64.282;2022-07-23T09:34:26;8.50;98.00
59973;DHT22;55298;-36.624;-64.282;2022-07-23T09:39:37;8.60;97.90
59973;DHT22;55298;-36.624;-64.282;2022-07-23T09:42:22;8.50;98.20
59973;DHT22;55298;-36.624;-64.282;2022-07-23T09:44:53;8.60;98.40
59973;DHT22;55298;-36.624;-64.282;2022-07-23T09:47:26;8.50;98.30
59973;DHT22;55298;-36.624;-64.282;2022-07-23T09:50:07;8.50;98.40
59973;DHT22;55298;-36.624;-64.282;2022-07-23T09:52:46;8.50;98.40
59973;DHT22;55298;-36.624;-64.282;2022-07-23T09:55:16;8.40;98.60
59973;DHT22;55298;-36.624;-64.282;2022-07-23T09:57:47;8.40;98.70
59973;DHT22;55298;-36.624;-64.282;2022-07-23T10:00:20;8.40;98.90
59973;DHT22;55298;-36.624;-64.282;2022-07-23T10:02:50;8.40;99.20
59973;DHT22;55298;-36.624;-64.282;2022-07-23T10:05:20;8.40;99.30
59973;DHT22;55298;-36.624;-64.282;2022-07-23T10:07:49;8.30;99.20
59973;DHT22;55298;-36.624;-64.282;2022-07-23T10:10:18;8.30;99.40
59973;DHT22;55298;-36.624;-64.282;2022-07-23T10:12:49;8.20;99.50
59973;DHT22;55298;-36.624;-64.282;2022-07-23T10:15:37;8.10;99.80
59973;DHT22;55298;-36.624;-64.282;2022-07-23T10:18:11;8.00;99.80
59973;DHT22;55298;-36.624;-64.282;2022-07-23T10:20:41;8.00;99.90
59973;DHT22;55298;-36.624;-64.282;2022-07-23T10:23:27;8.00;99.90
59973;DHT22;55298;-36.624;-64.282;2022-07-23T10:26:09;7.90;99.90
59973;DHT22;55298;-36.624;-64.282;2022-07-23T10:28:51;7.90;99.90
59973;DHT22;55298;-36.624;-64.282;2022-07-23T10:31:50;7.90;99.90
59973;DHT22;55298;-36.624;-64.282;2022-07-23T10:34:41;7.70;99.90
59973;DHT22;55298;-36.624;-64.282;2022-07-23T10:37:17;7.80;99.90
59973;DHT22;55298;-36.624;-64.282;2022-07-23T10:40:13;7.70;99.90
59973;DHT22;55298;-36.624;-64.282;2022-07-23T10:42:46;7.70;99.90
59973;DHT22;55298;-36.624;-64.282;2022-07-23T10:45:32;7.80;99.90
59973;DHT22;55298;-36.624;-64.282;2022-07-23T10:48:21;7.80;99.90
59973;DHT22;55298;-36.624;-64.282;2022-07-23T10:51:15;7.80;99.90
59973;DHT22;55298;-36.624;-64.282;2022-07-23T10:53:59;7.80;99.90
59973;DHT22;55298;-36.624;-64.282;2022-07-23T10:59:28;7.80;99.90
59973;DHT22;55298;-36.624;-64.282;2022-07-23T11:02:22;7.80;99.90
59973;DHT22;55298;-36.624;-64.282;2022-07-23T11:04:53;7.70;99.90
59973;DHT22;55298;-36.624;-64.282;2022-07-23T11:07:21;7.60;99.90
59973;DHT22;55298;-36.624;-64.282;2022-07-23T11:09:50;7.60;99.90
59973;DHT22;55298;-36.624;-64.282;2022-07-23T11:12:33;7.60;99.90
59973;DHT22;55298;-36.624;-64.282;2022-07-23T11:15:08;7.60;99.90
59973;DHT22;55298;-36.624;-64.282;2022-07-23T11:17:57;7.60;99.90
59973;DHT22;55298;-36.624;-64.282;2022-07-23T11:20:27;7.50;99.90
59973;DHT22;55298;-36.624;-64.282;2022-07-23T11:22:58;7.30;99.90
59973;DHT22;55298;-36.624;-64.282;2022-07-23T11:25:31;7.10;99.90
59973;DHT22;55298;-36.624;-64.282;2022-07-23T11:28:12;6.90;99.90
59973;DHT22;55298;-36.624;-64.282;2022-07-23T11:30:45;6.80;99.90
59973;DHT22;55298;-36.624;-64.282;2022-07-23T11:33:19;6.90;99.90
59973;DHT22;55298;-36.624;-64.282;2022-07-23T11:35:51;6.90;99.90
59973;DHT22;55298;-36.624;-64.282;2022-07-23T11:38:28;6.90;99.90
59973;DHT22;55298;-36.624;-64.282;2022-07-23T11:40:59;6.90;99.90
59973;DHT22;55298;-36.624;-64.282;2022-07-23T11:43:28;6.90;99.90
59973;DHT22;55298;-36.624;-64.282;2022-07-23T11:46:00;7.10;99.90
59973;DHT22;55298;-36.624;-64.282;2022-07-23T11:48:31;7.00;99.90
59973;DHT22;55298;-36.624;-64.282;2022-07-23T11:51:00;7.30;99.90
59973;DHT22;55298;-36.624;-64.282;2022-07-23T11:53:31;7.20;99.90
59973;DHT22;55298;-36.624;-64.282;2022-07-23T11:56:09;7.20;99.90
59973;DHT22;55298;-36.624;-64.282;2022-07-23T11:58:38;7.10;99.90
59973;DHT22;55298;-36.624;-64.282;2022-07-23T12:01:07;7.50;99.90
59973;DHT22;55298;-36.624;-64.282;2022-07-23T12:03:35;7.70;99.80
59973;DHT22;55298;-36.624;-64.282;2022-07-23T12:06:05;7.70;99.90
59973;DHT22;55298;-36.624;-64.282;2022-07-23T12:08:41;7.80;99.80
59973;DHT22;55298;-36.624;-64.282;2022-07-23T12:11:13;8.10;99.90
59973;DHT22;55298;-36.624;-64.282;2022-07-23T12:13:42;8.20;99.80
59973;DHT22;55298;-36.624;-64.282;2022-07-23T12:16:13;8.50;99.40
59973;DHT22;55298;-36.624;-64.282;2022-07-23T12:18:41;8.60;98.50
59973;DHT22;55298;-36.624;-64.282;2022-07-23T12:21:10;8.60;98.70
59973;DHT22;55298;-36.624;-64.282;2022-07-23T12:23:38;8.60;99.30
59973;DHT22;55298;-36.624;-64.282;2022-07-23T12:26:07;8.80;97.80
59973;DHT22;55298;-36.624;-64.282;2022-07-23T12:28:38;9.00;98.20
59973;DHT22;55298;-36.624;-64.282;2022-07-23T12:31:06;9.30;97.70
59973;DHT22;55298;-36.624;-64.282;2022-07-23T12:33:38;9.60;97.00
59973;DHT22;55298;-36.624;-64.282;2022-07-23T12:36:09;9.60;97.30
59973;DHT22;55298;-36.624;-64.282;2022-07-23T12:38:41;10.00;95.60
59973;DHT22;55298;-36.624;-64.282;2022-07-23T12:41:10;10.00;96.00
59973;DHT22;55298;-36.624;-64.282;2022-07-23T12:43:41;9.60;97.60
59973;DHT22;55298;-36.624;-64.282;2022-07-23T12:46:17;9.60;97.90
59973;DHT22;55298;-36.624;-64.282;2022-07-23T12:48:53;9.70;97.40
59973;DHT22;55298;-36.624;-64.282;2022-07-23T12:51:25;9.70;97.70
59973;DHT22;55298;-36.624;-64.282;2022-07-23T12:53:58;10.00;97.30
59973;DHT22;55298;-36.624;-64.282;2022-07-23T12:56:31;10.20;96.10
59973;DHT22;55298;-36.624;-64.282;2022-07-23T12:59:06;10.20;96.40
59973;DHT22;55298;-36.624;-64.282;2022-07-23T13:01:43;10.00;96.20
59973;DHT22;55298;-36.624;-64.282;2022-07-23T13:04:22;9.90;96.90
59973;DHT22;55298;-36.624;-64.282;2022-07-23T13:06:57;9.90;97.20
59973;DHT22;55298;-36.624;-64.282;2022-07-23T13:09:29;9.90;97.80
59973;DHT22;55298;-36.624;-64.282;2022-07-23T13:11:59;10.20;97.30
59973;DHT22;55298;-36.624;-64.282;2022-07-23T13:14:28;10.30;97.10
59973;DHT22;55298;-36.624;-64.282;2022-07-23T13:16:58;10.20;97.10
59973;DHT22;55298;-36.624;-64.282;2022-07-23T13:19:26;10.40;97.40
59973;DHT22;55298;-36.624;-64.282;2022-07-23T13:21:55;10.20;97.90
59973;DHT22;55298;-36.624;-64.282;2022-07-23T13:24:23;10.20;98.30
59973;DHT22;55298;-36.624;-64.282;2022-07-23T13:26:52;10.10;98.90
59973;DHT22;55298;-36.624;-64.282;2022-07-23T13:29:20;10.20;98.90
59973;DHT22;55298;-36.624;-64.282;2022-07-23T13:31:49;10.40;98.50
59973;DHT22;55298;-36.624;-64.282;2022-07-23T13:34:17;10.40;98.80
59973;DHT22;55298;-36.624;-64.282;2022-07-23T13:36:46;10.70;98.10
59973;DHT22;55298;-36.624;-64.282;2022-07-23T13:39:14;11.10;96.90
59973;DHT22;55298;-36.624;-64.282;2022-07-23T13:41:45;11.60;95.40
59973;DHT22;55298;-36.624;-64.282;2022-07-23T13:44:12;12.10;94.00
59973;DHT22;55298;-36.624;-64.282;2022-07-23T13:46:41;12.40;93.00
59973;DHT22;55298;-36.624;-64.282;2022-07-23T13:49:09;12.90;91.50
59973;DHT22;55298;-36.624;-64.282;2022-07-23T13:51:37;12.90;91.80
59973;DHT22;55298;-36.624;-64.282;2022-07-23T13:54:05;13.00;91.40
59973;DHT22;55298;-36.624;-64.282;2022-07-23T13:56:35;13.30;90.60
59973;DHT22;55298;-36.624;-64.282;2022-07-23T13:59:03;13.10;90.80
59973;DHT22;55298;-36.624;-64.282;2022-07-23T14:01:32;13.40;90.60
59973;DHT22;55298;-36.624;-64.282;2022-07-23T14:04:01;13.50;90.00
59973;DHT22;55298;-36.624;-64.282;2022-07-23T14:06:30;13.60;89.50
59973;DHT22;55298;-36.624;-64.282;2022-07-23T14:08:59;13.70;89.20
59973;DHT22;55298;-36.624;-64.282;2022-07-23T14:11:28;13.90;88.60
59973;DHT22;55298;-36.624;-64.282;2022-07-23T14:13:57;14.10;86.80
59973;DHT22;55298;-36.624;-64.282;2022-07-23T14:16:27;14.00;87.10
59973;DHT22;55298;-36.624;-64.282;2022-07-23T14:18:55;13.80;88.50
59973;DHT22;55298;-36.624;-64.282;2022-07-23T14:21:24;13.90;89.10
59973;DHT22;55298;-36.624;-64.282;2022-07-23T14:23:52;14.20;88.20
59973;DHT22;55298;-36.624;-64.282;2022-07-23T14:26:21;14.60;85.60
59973;DHT22;55298;-36.624;-64.282;2022-07-23T14:28:51;14.60;85.20
59973;DHT22;55298;-36.624;-64.282;2022-07-23T14:31:21;14.50;85.60
59973;DHT22;55298;-36.624;-64.282;2022-07-23T14:33:49;14.10;87.30
59973;DHT22;55298;-36.624;-64.282;2022-07-23T14:36:18;14.20;87.00
59973;DHT22;55298;-36.624;-64.282;2022-07-23T14:38:46;14.70;84.80
59973;DHT22;55298;-36.624;-64.282;2022-07-23T14:41:15;15.00;82.90
59973;DHT22;55298;-36.624;-64.282;2022-07-23T14:43:44;15.10;82.20
59973;DHT22;55298;-36.624;-64.282;2022-07-23T14:46:13;15.40;81.40
59973;DHT22;55298;-36.624;-64.282;2022-07-23T14:48:42;15.20;80.60
59973;DHT22;55298;-36.624;-64.282;2022-07-23T14:51:10;15.00;82.20
59973;DHT22;55298;-36.624;-64.282;2022-07-23T14:53:38;15.20;81.10
59973;DHT22;55298;-36.624;-64.282;2022-07-23T14:56:07;15.10;81.10
59973;DHT22;55298;-36.624;-64.282;2022-07-23T14:58:36;15.10;81.40
59973;DHT22;55298;-36.624;-64.282;2022-07-23T15:01:05;15.00;81.50
59973;DHT22;55298;-36.624;-64.282;2022-07-23T15:03:34;14.60;83.90
59973;DHT22;55298;-36.624;-64.282;2022-07-23T15:06:07;14.00;86.80
59973;DHT22;55298;-36.624;-64.282;2022-07-23T15:08:35;13.80;89.10
59973;DHT22;55298;-36.624;-64.282;2022-07-23T15:11:06;13.60;90.00
59973;DHT22;55298;-36.624;-64.282;2022-07-23T15:13:36;13.60;90.10
59973;DHT22;55298;-36.624;-64.282;2022-07-23T15:16:06;13.70;90.20
59973;DHT22;55298;-36.624;-64.282;2022-07-23T15:18:34;13.70;89.90
59973;DHT22;55298;-36.624;-64.282;2022-07-23T15:21:03;13.70;90.00